createdAt,value
2017-09-04T00:02:12.727Z,5.80
2017-09-04T00:04:40.217Z,4.93
2017-09-04T00:07:07.665Z,5.27
2017-09-04T00:09:35.129Z,5.67
2017-09-04T00:12:02.591Z,5.63
2017-09-04T00:14:30.066Z,5.00
2017-09-04T00:16:58.244Z,5.00
2017-09-04T00:19:26.851Z,5.20
2017-09-04T00:21:54.331Z,5.20
2017-09-04T00:24:21.804Z,4.80
2017-09-04T00:26:49.311Z,4.90
2017-09-04T00:29:16.761Z,4.60
2017-09-04T00:31:44.250Z,5.30
2017-09-04T00:34:11.696Z,4.65
2017-09-04T00:36:39.206Z,4.80
2017-09-04T00:39:06.710Z,4.33
2017-09-04T00:41:34.170Z,4.97
2017-09-04T00:44:01.665Z,5.60
2017-09-04T00:46:29.126Z,4.87
2017-09-04T00:48:56.634Z,4.83
2017-09-04T00:51:24.084Z,4.63
2017-09-04T00:53:51.574Z,4.90
2017-09-04T00:56:19.034Z,5.30
2017-09-04T00:58:46.520Z,4.90
2017-09-04T01:01:14.045Z,5.22
2017-09-04T01:03:41.512Z,4.80
2017-09-04T01:06:08.989Z,5.10
2017-09-04T01:08:36.451Z,4.97
2017-09-04T01:11:04.240Z,5.07
2017-09-04T01:13:31.721Z,5.10
2017-09-04T01:15:59.232Z,5.20
2017-09-04T01:18:26.707Z,4.87
2017-09-04T01:20:54.187Z,5.03
2017-09-04T01:23:21.673Z,5.10
2017-09-04T01:25:49.128Z,5.25
2017-09-04T01:28:16.611Z,5.28
2017-09-04T01:30:44.090Z,4.90
2017-09-04T01:33:11.561Z,4.60
2017-09-04T01:35:39.022Z,5.30
2017-09-04T01:38:06.494Z,4.90
2017-09-04T01:40:33.942Z,4.73
2017-09-04T01:43:01.553Z,5.10
2017-09-04T01:45:28.998Z,5.30
2017-09-04T01:47:56.503Z,4.80
2017-09-04T01:50:23.987Z,4.83
2017-09-04T01:52:51.443Z,4.87
2017-09-04T01:55:18.932Z,5.10
2017-09-04T01:57:46.391Z,4.87
2017-09-04T02:00:13.866Z,4.90
2017-09-04T02:02:41.325Z,5.17
2017-09-04T02:05:08.812Z,5.70
2017-09-04T02:07:36.274Z,5.33
2017-09-04T02:10:03.871Z,4.60
2017-09-04T02:12:31.330Z,4.93
2017-09-04T02:14:58.777Z,4.70
2017-09-04T02:17:26.269Z,4.65
2017-09-04T02:19:53.742Z,4.40
2017-09-04T02:22:21.333Z,4.73
2017-09-04T02:24:48.827Z,4.87
2017-09-04T02:27:16.319Z,4.78
2017-09-04T02:29:43.781Z,5.13
2017-09-04T02:32:11.279Z,4.80
2017-09-04T02:34:38.776Z,4.53
2017-09-04T02:37:06.415Z,4.50
2017-09-04T02:39:33.875Z,4.53
2017-09-04T02:42:01.339Z,4.97
2017-09-04T02:44:28.830Z,4.80
2017-09-04T02:46:56.318Z,4.90
2017-09-04T02:49:23.802Z,4.57
2017-09-04T02:51:51.279Z,4.75
2017-09-04T02:54:18.770Z,4.72
2017-09-04T02:56:46.252Z,4.80
2017-09-04T02:59:13.800Z,4.93
2017-09-04T03:01:41.331Z,4.63
2017-09-04T03:04:08.782Z,5.07
2017-09-04T03:06:36.273Z,4.80
2017-09-04T03:09:03.734Z,5.10
2017-09-04T03:11:31.238Z,5.20
2017-09-04T03:13:58.756Z,4.43
2017-09-04T03:16:26.230Z,5.55
2017-09-04T03:18:53.694Z,4.70
2017-09-04T03:21:21.297Z,4.75
2017-09-04T03:23:48.760Z,4.50
2017-09-04T03:26:16.208Z,5.12
2017-09-04T03:28:43.698Z,4.80
2017-09-04T03:31:11.154Z,5.17
2017-09-04T03:33:38.642Z,5.20
2017-09-04T03:36:06.101Z,4.93
2017-09-04T03:38:33.578Z,5.43
2017-09-04T03:41:01.056Z,5.22
2017-09-04T03:43:28.546Z,5.07
2017-09-04T03:45:56.010Z,5.60
2017-09-04T03:48:23.511Z,4.90
2017-09-04T03:50:50.987Z,5.20
2017-09-04T03:53:18.482Z,4.97
2017-09-04T03:55:45.944Z,4.90
2017-09-04T03:58:13.600Z,4.83
2017-09-04T04:00:41.058Z,4.97
2017-09-04T04:03:08.524Z,4.97
2017-09-04T04:05:36.021Z,4.70
2017-09-04T04:08:03.501Z,4.70
2017-09-04T04:10:31.003Z,4.87
2017-09-04T04:12:58.458Z,5.40
2017-09-04T04:15:25.947Z,4.80
2017-09-04T04:17:53.406Z,4.90
2017-09-04T04:20:20.904Z,5.10
2017-09-04T04:22:48.397Z,5.07
2017-09-04T04:25:15.895Z,4.90
2017-09-04T04:27:43.366Z,4.97
2017-09-04T04:30:10.858Z,4.67
2017-09-04T04:32:38.309Z,4.87
2017-09-04T04:35:05.818Z,5.10
2017-09-04T04:37:33.279Z,4.90
2017-09-04T04:40:00.774Z,4.70
2017-09-04T04:42:28.245Z,5.57
2017-09-04T04:44:55.698Z,4.90
2017-09-04T04:47:23.205Z,5.00
2017-09-04T04:49:50.671Z,5.22
2017-09-04T04:52:18.147Z,5.25
2017-09-04T04:54:45.602Z,5.57
2017-09-04T04:57:13.087Z,5.53
2017-09-04T04:59:40.551Z,4.90
2017-09-04T05:02:08.030Z,4.27
2017-09-04T05:04:35.500Z,5.17
2017-09-04T05:07:03.005Z,4.60
2017-09-04T05:09:30.508Z,4.77
2017-09-04T05:11:58.006Z,4.87
2017-09-04T05:14:25.501Z,4.50
2017-09-04T05:16:52.967Z,4.83
2017-09-04T05:19:20.459Z,4.90
2017-09-04T05:21:47.914Z,4.80
2017-09-04T05:24:15.405Z,5.47
2017-09-04T05:26:42.862Z,5.23
2017-09-04T05:29:10.335Z,5.00
2017-09-04T05:31:37.863Z,5.40
2017-09-04T05:34:05.387Z,5.40
2017-09-04T05:36:32.878Z,5.10
2017-09-04T05:39:00.343Z,5.10
2017-09-04T05:41:27.825Z,5.93
2017-09-04T05:43:55.273Z,5.10
2017-09-04T05:46:22.768Z,5.27
2017-09-04T05:48:50.237Z,5.57
2017-09-04T05:51:17.732Z,6.15
2017-09-04T05:53:45.253Z,5.63
2017-09-04T05:56:12.533Z,5.18
2017-09-04T05:58:40.025Z,5.30
2017-09-04T06:01:07.516Z,4.83
2017-09-04T06:03:35.572Z,5.00
2017-09-04T06:06:03.045Z,4.87
2017-09-04T06:08:30.525Z,6.07
2017-09-04T06:10:58.757Z,5.30
2017-09-04T06:13:26.270Z,5.00
2017-09-04T06:15:53.747Z,5.00
2017-09-04T06:18:21.211Z,5.37
2017-09-04T06:20:48.690Z,5.50
2017-09-04T06:23:16.136Z,5.30
2017-09-04T06:25:43.623Z,5.30
2017-09-04T06:28:11.110Z,4.80
2017-09-04T06:30:38.590Z,8.20
2017-09-04T06:33:06.056Z,5.50
2017-09-04T06:35:33.551Z,5.20
2017-09-04T06:38:01.019Z,5.67
2017-09-04T06:40:28.512Z,6.80
2017-09-04T06:42:55.981Z,7.10
2017-09-04T06:45:23.489Z,7.33
2017-09-04T06:47:50.967Z,6.33
2017-09-04T06:50:18.565Z,7.40
2017-09-04T06:52:46.065Z,10.27
2017-09-04T06:55:13.560Z,10.30
2017-09-04T06:57:41.042Z,7.70
2017-09-04T07:00:08.559Z,7.43
2017-09-04T07:02:36.051Z,8.80
2017-09-04T07:05:03.497Z,6.70
2017-09-04T07:07:31.014Z,23.07
2017-09-04T07:09:58.606Z,14.17
2017-09-04T07:12:26.094Z,5.63
2017-09-04T07:14:53.573Z,6.20
2017-09-04T07:17:21.066Z,8.00
2017-09-04T07:19:48.554Z,6.97
2017-09-04T07:22:16.062Z,7.30
2017-09-04T07:24:43.569Z,6.33
2017-09-04T07:27:11.125Z,6.12
2017-09-04T07:29:38.621Z,6.30
2017-09-04T07:32:06.097Z,6.70
2017-09-04T07:34:33.623Z,6.75
2017-09-04T07:37:01.138Z,8.00
2017-09-04T07:39:28.630Z,6.23
2017-09-04T07:41:56.085Z,6.50
2017-09-04T07:44:23.544Z,7.10
2017-09-04T07:46:51.041Z,6.73
2017-09-04T07:49:18.530Z,7.77
2017-09-04T07:51:50.739Z,6.67
2017-09-04T07:54:18.256Z,7.13
2017-09-04T07:56:46.544Z,7.00
2017-09-04T07:59:14.044Z,7.07
2017-09-04T08:01:41.497Z,7.57
2017-09-04T08:04:08.983Z,7.13
2017-09-04T08:06:36.480Z,6.53
2017-09-04T08:09:03.979Z,7.50
2017-09-04T08:11:31.507Z,6.63
2017-09-04T08:13:58.985Z,8.63
2017-09-04T08:16:26.472Z,9.93
2017-09-04T08:18:53.989Z,9.63
2017-09-04T08:21:21.581Z,7.72
2017-09-04T08:23:49.058Z,6.60
2017-09-04T08:26:16.526Z,7.30
2017-09-04T08:28:44.047Z,7.50
2017-09-04T08:31:12.414Z,8.13
2017-09-04T08:33:39.905Z,7.50
2017-09-04T08:36:08.099Z,8.00
2017-09-04T08:38:35.623Z,8.20
2017-09-04T08:41:03.089Z,8.63
2017-09-04T08:43:30.622Z,8.17
2017-09-04T08:45:58.150Z,7.60
2017-09-04T08:48:25.627Z,6.50
2017-09-04T08:50:53.142Z,7.20
2017-09-04T08:53:20.640Z,6.20
2017-09-04T08:55:48.143Z,6.80
2017-09-04T08:58:15.603Z,7.00
2017-09-04T09:00:43.103Z,7.67
2017-09-04T09:03:10.566Z,7.50
2017-09-04T09:05:38.091Z,6.60
2017-09-04T09:08:05.578Z,7.00
2017-09-04T09:10:33.079Z,6.73
2017-09-04T09:13:00.562Z,5.90
2017-09-04T09:15:28.084Z,5.90
2017-09-04T09:17:55.649Z,5.10
2017-09-04T09:20:23.168Z,7.33
2017-09-04T09:22:50.771Z,8.33
2017-09-04T09:25:18.342Z,5.97
2017-09-04T09:27:45.884Z,4.73
2017-09-04T09:30:14.671Z,4.45
2017-09-04T09:32:42.295Z,6.00
2017-09-04T09:35:09.810Z,5.80
2017-09-04T09:40:14.177Z,5.50
2017-09-04T09:42:41.655Z,5.17
2017-09-04T09:45:09.170Z,4.93
2017-09-04T09:47:36.684Z,4.67
2017-09-04T09:50:04.243Z,4.70
2017-09-04T09:52:31.762Z,4.30
2017-09-04T09:54:59.257Z,4.87
2017-09-04T09:57:26.779Z,4.77
2017-09-04T09:59:54.327Z,4.70
2017-09-04T10:02:21.883Z,5.10
2017-09-04T10:04:49.385Z,5.35
2017-09-04T10:07:16.881Z,4.50
2017-09-04T10:09:44.519Z,4.70
2017-09-04T10:12:11.982Z,4.30
2017-09-04T10:14:39.471Z,4.30
2017-09-04T10:17:06.932Z,4.50
2017-09-04T10:19:34.455Z,4.77
2017-09-04T10:22:01.933Z,4.17
2017-09-04T10:24:29.444Z,3.80
2017-09-04T10:26:57.535Z,4.77
2017-09-04T10:29:25.172Z,4.23
2017-09-04T10:31:52.665Z,4.10
2017-09-04T10:34:20.165Z,4.10
2017-09-04T10:36:47.674Z,3.50
2017-09-04T10:39:15.148Z,3.53
2017-09-04T10:41:42.781Z,3.90
2017-09-04T10:44:10.293Z,3.67
2017-09-04T10:46:37.850Z,3.93
2017-09-04T10:49:05.720Z,3.75
2017-09-04T10:51:33.197Z,4.17
2017-09-04T10:54:00.726Z,4.20
2017-09-04T10:56:28.208Z,3.90
2017-09-04T10:58:55.768Z,4.00
2017-09-04T11:01:23.266Z,3.23
2017-09-04T11:03:50.777Z,3.60
2017-09-04T11:06:18.353Z,3.87
2017-09-04T11:08:46.431Z,4.00
2017-09-04T11:11:13.898Z,4.12
2017-09-04T11:13:41.394Z,3.97
2017-09-04T11:16:08.890Z,3.67
2017-09-04T11:18:36.389Z,4.10
2017-09-04T11:21:05.232Z,3.70
2017-09-04T11:23:32.992Z,6.90
2017-09-04T11:26:00.545Z,4.13
2017-09-04T11:28:28.073Z,4.37
2017-09-04T11:30:55.575Z,4.77
2017-09-04T11:33:23.073Z,4.72
2017-09-04T11:35:50.549Z,3.47
2017-09-04T11:38:18.018Z,3.90
2017-09-04T11:40:46.477Z,3.67
2017-09-04T11:43:13.965Z,3.50
2017-09-04T11:45:41.414Z,3.67
2017-09-04T11:48:08.926Z,3.40
2017-09-04T11:50:36.414Z,3.73
2017-09-04T11:53:04.061Z,3.47
2017-09-04T11:55:31.550Z,3.23
2017-09-04T11:57:59.026Z,3.80
2017-09-04T12:00:26.534Z,3.57
2017-09-04T12:02:53.989Z,4.07
2017-09-04T12:05:21.494Z,3.55
2017-09-04T12:07:48.934Z,3.50
2017-09-04T12:10:16.441Z,3.80
2017-09-04T12:12:43.937Z,4.00
2017-09-04T12:15:11.517Z,3.50
2017-09-04T12:17:38.987Z,3.57
2017-09-04T12:20:06.453Z,3.60
2017-09-04T12:22:34.039Z,3.53
2017-09-04T12:25:01.512Z,4.30
2017-09-04T12:27:29.023Z,3.83
2017-09-04T12:29:57.123Z,4.10
2017-09-04T12:32:24.632Z,3.50
2017-09-04T12:34:52.156Z,3.50
2017-09-04T12:37:19.616Z,3.80
2017-09-04T12:39:47.091Z,3.27
2017-09-04T12:42:14.568Z,3.63
2017-09-04T12:44:42.082Z,3.60
2017-09-04T12:47:09.556Z,3.53
2017-09-04T12:49:37.037Z,3.70
2017-09-04T12:52:04.490Z,3.00
2017-09-04T12:54:31.982Z,3.97
2017-09-04T12:56:59.441Z,3.13
2017-09-04T12:59:26.949Z,4.43
2017-09-04T13:01:54.454Z,3.30
2017-09-04T13:04:21.926Z,3.80
2017-09-04T13:06:49.404Z,3.63
2017-09-04T13:09:16.909Z,4.20
2017-09-04T13:11:49.973Z,3.57
2017-09-04T13:14:22.991Z,3.73
2017-09-04T13:16:56.167Z,3.27
2017-09-04T13:19:25.587Z,3.13
2017-09-04T13:21:58.550Z,3.53
2017-09-04T13:24:31.682Z,3.77
2017-09-04T13:27:07.527Z,3.60
2017-09-04T13:29:40.399Z,3.57
2017-09-04T13:35:14.741Z,3.20
2017-09-04T13:37:47.810Z,3.47
2017-09-04T13:40:16.105Z,3.90
2017-09-04T13:42:49.158Z,3.40
2017-09-04T13:45:22.209Z,3.00
2017-09-04T13:51:01.696Z,3.60
2017-09-04T13:53:34.962Z,3.10
2017-09-04T13:59:08.008Z,4.50
2017-09-04T14:04:44.396Z,3.60
2017-09-04T14:07:27.869Z,3.70
2017-09-04T14:09:58.774Z,3.50
2017-09-04T14:15:42.022Z,4.47
2017-09-04T14:18:09.535Z,4.20
2017-09-04T14:20:37.062Z,3.47
2017-09-04T14:23:04.581Z,3.70
2017-09-04T14:25:32.555Z,4.20
2017-09-04T14:28:00.056Z,3.60
2017-09-04T14:30:27.542Z,4.53
2017-09-04T14:32:55.045Z,4.03
2017-09-04T14:35:22.571Z,4.10
2017-09-04T14:37:50.060Z,4.03
2017-09-04T14:40:23.014Z,4.00
2017-09-04T14:42:50.794Z,3.70
2017-09-04T14:45:30.090Z,3.50
2017-09-04T14:47:57.837Z,3.50
2017-09-04T14:50:25.910Z,3.60
2017-09-04T14:52:53.394Z,3.60
2017-09-04T14:55:20.877Z,4.03
2017-09-04T14:57:48.337Z,4.23
2017-09-04T15:00:15.828Z,4.87
2017-09-04T15:02:43.304Z,4.60
2017-09-04T15:05:10.975Z,4.63
2017-09-04T15:07:38.435Z,4.10
2017-09-04T15:10:06.798Z,3.70
2017-09-04T15:12:34.333Z,4.50
2017-09-04T15:15:01.804Z,4.00
2017-09-04T15:17:29.288Z,3.73
2017-09-04T15:19:56.775Z,4.00
2017-09-04T15:22:24.268Z,3.50
2017-09-04T15:24:51.760Z,4.37
2017-09-04T15:27:20.468Z,4.53
2017-09-04T15:29:47.939Z,3.73
2017-09-04T15:32:15.443Z,4.30
2017-09-04T15:34:42.928Z,4.07
2017-09-04T15:37:10.409Z,4.40
2017-09-04T15:39:37.892Z,4.43
2017-09-04T15:42:05.341Z,4.00
2017-09-04T15:44:32.818Z,4.00
2017-09-04T15:47:00.266Z,3.83
2017-09-04T15:49:28.040Z,4.03
2017-09-04T15:51:55.527Z,4.00
2017-09-04T15:54:22.994Z,4.30
2017-09-04T15:56:50.482Z,3.63
2017-09-04T15:59:17.963Z,4.50
2017-09-04T16:01:45.432Z,4.30
2017-09-04T16:04:13.042Z,4.20
2017-09-04T16:06:43.049Z,3.97
2017-09-04T16:09:10.519Z,4.50
2017-09-04T16:11:38.112Z,4.50
2017-09-04T16:14:06.313Z,3.90
2017-09-04T16:16:48.662Z,3.97
2017-09-04T16:19:18.078Z,3.60
2017-09-04T16:24:49.773Z,3.80
2017-09-04T16:27:20.181Z,3.87
2017-09-04T16:29:50.217Z,4.13
2017-09-04T16:32:18.517Z,4.40
2017-09-04T16:35:02.679Z,4.30
2017-09-04T16:40:35.506Z,4.07
2017-09-04T16:46:05.307Z,3.77
2017-09-04T16:48:38.387Z,4.13
2017-09-04T16:54:07.960Z,4.07
2017-09-04T16:59:40.467Z,4.33
2017-09-04T17:02:07.978Z,3.90
2017-09-04T17:04:35.447Z,3.90
2017-09-04T17:07:02.946Z,3.60
2017-09-04T17:09:30.428Z,3.87
2017-09-04T17:12:00.707Z,3.43
2017-09-04T17:14:28.224Z,3.97
2017-09-04T17:16:55.722Z,3.93
2017-09-04T17:19:38.086Z,4.37
2017-09-04T17:22:11.227Z,4.50
2017-09-04T17:24:44.312Z,5.03
2017-09-04T17:27:11.767Z,4.93
2017-09-04T17:29:39.913Z,4.83
2017-09-04T17:32:07.498Z,4.80
2017-09-04T17:34:35.081Z,5.10
2017-09-04T17:37:02.564Z,5.10
2017-09-04T17:39:30.039Z,4.67
2017-09-04T17:41:57.524Z,4.77
2017-09-04T17:44:24.993Z,4.80
2017-09-04T17:46:52.479Z,4.80
2017-09-04T17:49:19.958Z,4.93
2017-09-04T17:51:47.449Z,4.73
2017-09-04T17:54:14.925Z,4.70
2017-09-04T17:56:42.387Z,4.37
2017-09-04T17:59:09.875Z,4.70
2017-09-04T18:01:37.355Z,4.43
2017-09-04T18:04:04.868Z,4.00
2017-09-04T18:06:32.463Z,4.60
2017-09-04T18:09:00.638Z,4.23
2017-09-04T18:11:28.714Z,4.53
2017-09-04T18:13:56.212Z,4.20
2017-09-04T18:16:23.693Z,4.50
2017-09-04T18:18:51.207Z,4.20
2017-09-04T18:21:18.674Z,4.63
2017-09-04T18:23:46.137Z,4.67
2017-09-04T18:26:13.610Z,4.47
2017-09-04T18:28:41.067Z,4.60
2017-09-04T18:31:08.555Z,4.57
2017-09-04T18:33:36.015Z,4.50
2017-09-04T18:36:03.519Z,4.57
2017-09-04T18:38:30.964Z,4.30
2017-09-04T18:40:58.442Z,5.20
2017-09-04T18:43:25.918Z,4.67
2017-09-04T18:45:53.405Z,4.07
2017-09-04T18:48:20.877Z,4.60
2017-09-04T18:50:48.360Z,4.70
2017-09-04T18:53:15.841Z,4.30
2017-09-04T18:55:43.290Z,4.00
2017-09-04T18:58:10.774Z,4.43
2017-09-04T19:00:38.308Z,4.53
2017-09-04T19:03:05.808Z,4.13
2017-09-04T19:05:33.266Z,3.90
2017-09-04T19:08:00.771Z,4.30
2017-09-04T19:10:28.217Z,3.87
2017-09-04T19:12:55.693Z,3.83
2017-09-04T19:15:23.177Z,3.63
2017-09-04T19:17:50.644Z,3.90
2017-09-04T19:20:18.214Z,4.00
2017-09-04T19:22:45.674Z,4.13
2017-09-04T19:25:13.372Z,3.90
2017-09-04T19:27:40.860Z,4.33
2017-09-04T19:30:08.350Z,4.40
2017-09-04T19:32:35.818Z,3.97
2017-09-04T19:35:03.420Z,4.27
2017-09-04T19:37:30.980Z,4.00
2017-09-04T19:39:58.511Z,4.07
2017-09-04T19:42:26.020Z,3.97
2017-09-04T19:44:53.465Z,3.93
2017-09-04T19:47:20.955Z,4.27
2017-09-04T19:49:48.402Z,4.40
2017-09-04T19:52:15.873Z,4.17
2017-09-04T19:54:43.352Z,3.63
2017-09-04T19:57:10.819Z,4.07
2017-09-04T19:59:38.308Z,4.23
2017-09-04T20:02:05.942Z,4.20
2017-09-04T20:04:33.397Z,4.50
2017-09-04T20:07:00.866Z,4.37
2017-09-04T20:09:28.365Z,4.20
2017-09-04T20:11:55.823Z,4.10
2017-09-04T20:14:23.305Z,4.00
2017-09-04T20:16:50.785Z,3.97
2017-09-04T20:19:18.272Z,3.80
2017-09-04T20:21:45.721Z,4.60
2017-09-04T20:24:13.186Z,4.03
2017-09-04T20:26:40.657Z,4.00
2017-09-04T20:29:08.127Z,4.00
2017-09-04T20:31:35.615Z,3.77
2017-09-04T20:34:03.083Z,4.43
2017-09-04T20:36:30.572Z,4.10
2017-09-04T20:38:58.046Z,4.50
2017-09-04T20:41:26.337Z,4.03
2017-09-04T20:43:53.792Z,4.10
2017-09-04T20:46:21.278Z,4.10
2017-09-04T20:48:48.760Z,4.30
2017-09-04T20:51:16.218Z,3.80
2017-09-04T20:53:43.709Z,3.80
2017-09-04T20:56:11.176Z,4.47
2017-09-04T20:58:38.670Z,3.70
2017-09-04T21:01:06.115Z,4.00
2017-09-04T21:03:33.590Z,4.10
2017-09-04T21:06:01.051Z,4.40
2017-09-04T21:08:28.542Z,4.30
2017-09-04T21:10:56.018Z,4.20
2017-09-04T21:13:23.477Z,3.80
2017-09-04T21:15:50.957Z,4.03
2017-09-04T21:18:18.414Z,3.80
2017-09-04T21:20:45.894Z,3.57
2017-09-04T21:23:13.366Z,3.77
2017-09-04T21:25:40.845Z,3.73
2017-09-04T21:28:08.333Z,4.23
2017-09-04T21:30:35.798Z,3.80
2017-09-04T21:33:03.304Z,4.07
2017-09-04T21:35:30.765Z,3.47
2017-09-04T21:37:58.258Z,3.80
2017-09-04T21:40:25.705Z,4.30
2017-09-04T21:42:53.180Z,4.20
2017-09-04T21:45:20.669Z,3.83
2017-09-04T21:47:48.406Z,3.73
2017-09-04T21:50:15.914Z,3.80
2017-09-04T21:52:43.379Z,3.87
2017-09-04T21:55:10.867Z,3.90
2017-09-04T21:57:38.335Z,4.17
2017-09-04T22:00:05.826Z,3.97
2017-09-04T22:02:33.288Z,3.57
2017-09-04T22:05:00.768Z,4.00
2017-09-04T22:07:28.233Z,3.60
2017-09-04T22:09:55.700Z,3.97
2017-09-04T22:12:23.173Z,3.83
2017-09-04T22:14:50.775Z,3.70
2017-09-04T22:17:18.259Z,3.37
2017-09-04T22:19:45.716Z,3.67
2017-09-04T22:22:13.303Z,3.67
2017-09-04T22:24:40.749Z,3.47
2017-09-04T22:27:08.220Z,3.80
2017-09-04T22:29:35.712Z,3.57
2017-09-04T22:32:03.171Z,3.70
2017-09-04T22:34:30.661Z,3.73
2017-09-04T22:36:58.110Z,3.33
2017-09-04T22:39:25.607Z,4.20
2017-09-04T22:41:53.062Z,3.33
2017-09-04T22:44:20.561Z,3.70
2017-09-04T22:46:48.018Z,3.30
2017-09-04T22:49:15.497Z,3.67
2017-09-04T22:51:42.966Z,3.60
2017-09-04T22:54:10.441Z,3.50
2017-09-04T22:56:37.925Z,3.60
2017-09-04T22:59:05.382Z,3.63
2017-09-04T23:01:32.864Z,3.80
2017-09-04T23:04:00.310Z,3.60
2017-09-04T23:06:28.121Z,3.50
2017-09-04T23:08:55.586Z,3.40
2017-09-04T23:11:23.079Z,3.30
2017-09-04T23:13:50.533Z,3.40
2017-09-04T23:16:18.001Z,3.33
2017-09-04T23:18:45.497Z,3.30
2017-09-04T23:21:12.951Z,3.30
2017-09-04T23:23:40.426Z,3.40
2017-09-04T23:26:07.885Z,3.27
2017-09-04T23:28:35.355Z,3.23
2017-09-04T23:31:02.811Z,3.60
2017-09-04T23:33:30.292Z,3.10
2017-09-04T23:35:57.749Z,3.13
2017-09-04T23:38:25.368Z,3.60
2017-09-04T23:40:52.813Z,3.60
2017-09-04T23:43:20.270Z,3.00
2017-09-04T23:45:47.755Z,3.30
2017-09-04T23:48:15.228Z,3.53
2017-09-04T23:50:42.719Z,3.50
2017-09-04T23:53:10.179Z,2.90
2017-09-04T23:55:37.674Z,3.40
2017-09-04T23:58:05.131Z,3.53
